sensor_id;sensor_type;location;lat;lon;timestamp;temperature;humidity
9760;DHT22;4919;48.792;9.202;2023-04-01T00:01:39;8.50;1.00
9760;DHT22;4919;48.792;9.202;2023-04-01T00:04:24;8.50;1.00
9760;DHT22;4919;48.792;9.202;2023-04-01T00:07:09;8.50;1.00
9760;DHT22;4919;48.792;9.202;2023-04-01T00:09:53;8.50;1.00
9760;DHT22;4919;48.792;9.202;2023-04-01T00:12:39;8.50;1.00
9760;DHT22;4919;48.792;9.202;2023-04-01T00:15:24;8.50;1.00
9760;DHT22;4919;48.792;9.202;2023-04-01T00:18:09;8.50;1.00
9760;DHT22;4919;48.792;9.202;2023-04-01T00:20:54;8.50;1.00
9760;DHT22;4919;48.792;9.202;2023-04-01T00:23:38;8.50;1.00
9760;DHT22;4919;48.792;9.202;2023-04-01T00:26:23;8.50;1.00
9760;DHT22;4919;48.792;9.202;2023-04-01T00:29:08;8.50;1.00
9760;DHT22;4919;48.792;9.202;2023-04-01T00:31:53;8.50;1.00
9760;DHT22;4919;48.792;9.202;2023-04-01T00:34:38;8.50;1.00
9760;DHT22;4919;48.792;9.202;2023-04-01T00:37:23;8.50;1.00
9760;DHT22;4919;48.792;9.202;2023-04-01T00:40:20;8.50;1.00
9760;DHT22;4919;48.792;9.202;2023-04-01T00:43:18;8.50;1.00
9760;DHT22;4919;48.792;9.202;2023-04-01T00:46:03;8.50;1.00
9760;DHT22;4919;48.792;9.202;2023-04-01T00:48:51;8.60;1.00
9760;DHT22;4919;48.792;9.202;2023-04-01T00:51:37;8.50;1.00
9760;DHT22;4919;48.792;9.202;2023-04-01T00:54:24;8.60;1.00
9760;DHT22;4919;48.792;9.202;2023-04-01T00:57:18;8.60;1.00
9760;DHT22;4919;48.792;9.202;2023-04-01T01:00:06;8.60;1.00
9760;DHT22;4919;48.792;9.202;2023-04-01T01:02:53;8.60;1.00
9760;DHT22;4919;48.792;9.202;2023-04-01T01:08:58;8.60;1.00
9760;DHT22;4919;48.792;9.202;2023-04-01T01:12:03;8.60;1.00
9760;DHT22;4919;48.792;9.202;2023-04-01T01:18:05;8.60;1.00
9760;DHT22;4919;48.792;9.202;2023-04-01T01:24:25;8.70;1.00
9760;DHT22;4919;48.792;9.202;2023-04-01T01:27:20;8.70;1.00
9760;DHT22;4919;48.792;9.202;2023-04-01T01:33:20;8.70;1.00
9760;DHT22;4919;48.792;9.202;2023-04-01T01:36:10;8.70;1.00
9760;DHT22;4919;48.792;9.202;2023-04-01T01:38:57;8.70;1.00
9760;DHT22;4919;48.792;9.202;2023-04-01T01:41:43;8.70;1.00
9760;DHT22;4919;48.792;9.202;2023-04-01T01:44:30;8.70;1.00
9760;DHT22;4919;48.792;9.202;2023-04-01T01:47:17;8.70;1.00
9760;DHT22;4919;48.792;9.202;2023-04-01T01:50:04;8.70;1.00
9760;DHT22;4919;48.792;9.202;2023-04-01T01:52:49;8.70;1.00
9760;DHT22;4919;48.792;9.202;2023-04-01T01:55:37;8.70;1.00
9760;DHT22;4919;48.792;9.202;2023-04-01T01:58:29;8.70;1.00
9760;DHT22;4919;48.792;9.202;2023-04-01T02:01:19;8.70;1.00
9760;DHT22;4919;48.792;9.202;2023-04-01T02:04:04;8.70;1.00
9760;DHT22;4919;48.792;9.202;2023-04-01T02:06:56;8.70;1.00
9760;DHT22;4919;48.792;9.202;2023-04-01T02:09:44;8.70;1.00
9760;DHT22;4919;48.792;9.202;2023-04-01T02:12:29;8.70;1.00
9760;DHT22;4919;48.792;9.202;2023-04-01T02:15:15;8.70;1.00
9760;DHT22;4919;48.792;9.202;2023-04-01T02:18:00;8.70;1.00
9760;DHT22;4919;48.792;9.202;2023-04-01T02:20:45;8.70;1.00
9760;DHT22;4919;48.792;9.202;2023-04-01T02:23:33;8.70;1.00
9760;DHT22;4919;48.792;9.202;2023-04-01T02:26:20;8.70;1.00
9760;DHT22;4919;48.792;9.202;2023-04-01T02:29:06;8.70;1.00
9760;DHT22;4919;48.792;9.202;2023-04-01T02:31:52;8.70;1.00
9760;DHT22;4919;48.792;9.202;2023-04-01T02:34:38;8.70;1.00
9760;DHT22;4919;48.792;9.202;2023-04-01T02:37:23;8.70;1.00
9760;DHT22;4919;48.792;9.202;2023-04-01T02:40:10;8.70;1.00
9760;DHT22;4919;48.792;9.202;2023-04-01T02:42:55;8.70;1.00
9760;DHT22;4919;48.792;9.202;2023-04-01T02:45:40;8.70;1.00
9760;DHT22;4919;48.792;9.202;2023-04-01T02:48:25;8.70;1.00
9760;DHT22;4919;48.792;9.202;2023-04-01T02:51:10;8.70;1.00
9760;DHT22;4919;48.792;9.202;2023-04-01T02:53:55;8.70;1.00
9760;DHT22;4919;48.792;9.202;2023-04-01T02:56:40;8.70;1.00
9760;DHT22;4919;48.792;9.202;2023-04-01T02:59:25;8.70;1.00
9760;DHT22;4919;48.792;9.202;2023-04-01T03:02:09;8.70;1.00
9760;DHT22;4919;48.792;9.202;2023-04-01T03:04:55;8.70;1.00
9760;DHT22;4919;48.792;9.202;2023-04-01T03:07:40;8.70;1.00
9760;DHT22;4919;48.792;9.202;2023-04-01T03:10:24;8.70;1.00
9760;DHT22;4919;48.792;9.202;2023-04-01T03:13:09;8.70;1.00
9760;DHT22;4919;48.792;9.202;2023-04-01T03:15:54;8.70;1.00
9760;DHT22;4919;48.792;9.202;2023-04-01T03:18:39;8.70;1.00
9760;DHT22;4919;48.792;9.202;2023-04-01T03:21:24;8.70;1.00
9760;DHT22;4919;48.792;9.202;2023-04-01T03:24:10;8.70;1.00
9760;DHT22;4919;48.792;9.202;2023-04-01T03:26:54;8.70;1.00
9760;DHT22;4919;48.792;9.202;2023-04-01T03:29:39;8.70;1.00
9760;DHT22;4919;48.792;9.202;2023-04-01T03:32:24;8.70;1.00
9760;DHT22;4919;48.792;9.202;2023-04-01T03:35:09;8.70;1.00
9760;DHT22;4919;48.792;9.202;2023-04-01T03:37:54;8.70;1.00
9760;DHT22;4919;48.792;9.202;2023-04-01T03:40:42;8.70;1.00
9760;DHT22;4919;48.792;9.202;2023-04-01T03:43:27;8.70;1.00
9760;DHT22;4919;48.792;9.202;2023-04-01T03:46:19;8.70;1.00
9760;DHT22;4919;48.792;9.202;2023-04-01T03:49:11;8.70;1.00
9760;DHT22;4919;48.792;9.202;2023-04-01T03:51:55;8.70;1.00
9760;DHT22;4919;48.792;9.202;2023-04-01T03:54:40;8.70;1.00
9760;DHT22;4919;48.792;9.202;2023-04-01T03:57:25;8.70;1.00
9760;DHT22;4919;48.792;9.202;2023-04-01T04:00:11;8.70;1.00
9760;DHT22;4919;48.792;9.202;2023-04-01T04:02:56;8.70;1.00
9760;DHT22;4919;48.792;9.202;2023-04-01T04:05:48;8.70;1.00
9760;DHT22;4919;48.792;9.202;2023-04-01T04:08:33;8.80;1.00
9760;DHT22;4919;48.792;9.202;2023-04-01T04:11:20;8.80;1.00
9760;DHT22;4919;48.792;9.202;2023-04-01T04:14:05;8.70;1.00
9760;DHT22;4919;48.792;9.202;2023-04-01T04:16:50;8.80;1.00
9760;DHT22;4919;48.792;9.202;2023-04-01T04:19:34;8.70;1.00
9760;DHT22;4919;48.792;9.202;2023-04-01T04:22:19;8.80;1.00
9760;DHT22;4919;48.792;9.202;2023-04-01T04:25:04;8.80;1.00
9760;DHT22;4919;48.792;9.202;2023-04-01T04:27:49;8.80;1.00
9760;DHT22;4919;48.792;9.202;2023-04-01T04:30:34;8.80;1.00
9760;DHT22;4919;48.792;9.202;2023-04-01T04:33:20;8.80;1.00
9760;DHT22;4919;48.792;9.202;2023-04-01T04:36:05;8.80;1.00
9760;DHT22;4919;48.792;9.202;2023-04-01T04:38:50;8.80;1.00
9760;DHT22;4919;48.792;9.202;2023-04-01T04:41:37;8.80;1.00
9760;DHT22;4919;48.792;9.202;2023-04-01T04:44:22;8.80;1.00
9760;DHT22;4919;48.792;9.202;2023-04-01T04:47:07;8.90;1.00
9760;DHT22;4919;48.792;9.202;2023-04-01T04:49:52;8.80;1.00
9760;DHT22;4919;48.792;9.202;2023-04-01T04:52:36;8.90;1.00
9760;DHT22;4919;48.792;9.202;2023-04-01T04:55:21;8.90;1.00
9760;DHT22;4919;48.792;9.202;2023-04-01T04:58:06;8.90;1.00
9760;DHT22;4919;48.792;9.202;2023-04-01T05:00:51;8.90;1.00
9760;DHT22;4919;48.792;9.202;2023-04-01T05:03:36;8.90;1.00
9760;DHT22;4919;48.792;9.202;2023-04-01T05:06:21;8.90;1.00
9760;DHT22;4919;48.792;9.202;2023-04-01T05:09:06;8.90;1.00
9760;DHT22;4919;48.792;9.202;2023-04-01T05:11:51;8.90;1.00
9760;DHT22;4919;48.792;9.202;2023-04-01T05:14:36;9.00;1.00
9760;DHT22;4919;48.792;9.202;2023-04-01T05:17:21;9.00;1.00
9760;DHT22;4919;48.792;9.202;2023-04-01T05:20:06;9.00;1.00
9760;DHT22;4919;48.792;9.202;2023-04-01T05:22:56;9.00;1.00
9760;DHT22;4919;48.792;9.202;2023-04-01T05:25:40;9.00;1.00
9760;DHT22;4919;48.792;9.202;2023-04-01T05:28:25;9.00;1.00
9760;DHT22;4919;48.792;9.202;2023-04-01T05:31:10;9.00;1.00
9760;DHT22;4919;48.792;9.202;2023-04-01T05:33:55;9.10;1.00
9760;DHT22;4919;48.792;9.202;2023-04-01T05:36:40;9.10;1.00
9760;DHT22;4919;48.792;9.202;2023-04-01T05:39:25;9.10;1.00
9760;DHT22;4919;48.792;9.202;2023-04-01T05:42:10;9.10;1.00
9760;DHT22;4919;48.792;9.202;2023-04-01T05:44:55;9.10;1.00
9760;DHT22;4919;48.792;9.202;2023-04-01T05:47:40;9.10;1.00
9760;DHT22;4919;48.792;9.202;2023-04-01T05:50:24;9.20;1.00
9760;DHT22;4919;48.792;9.202;2023-04-01T05:53:09;9.20;1.00
9760;DHT22;4919;48.792;9.202;2023-04-01T05:55:54;9.20;1.00
9760;DHT22;4919;48.792;9.202;2023-04-01T05:58:39;9.20;1.00
9760;DHT22;4919;48.792;9.202;2023-04-01T06:01:24;9.30;1.00
9760;DHT22;4919;48.792;9.202;2023-04-01T06:04:14;9.30;1.00
9760;DHT22;4919;48.792;9.202;2023-04-01T06:06:59;9.30;1.00
9760;DHT22;4919;48.792;9.202;2023-04-01T06:09:45;9.40;1.00
9760;DHT22;4919;48.792;9.202;2023-04-01T06:25:42;9.50;1.00
9760;DHT22;4919;48.792;9.202;2023-04-01T06:32:20;9.60;1.00
9760;DHT22;4919;48.792;9.202;2023-04-01T06:44:23;9.60;1.00
9760;DHT22;4919;48.792;9.202;2023-04-01T06:47:27;9.60;1.00
9760;DHT22;4919;48.792;9.202;2023-04-01T06:50:40;9.60;1.00
9760;DHT22;4919;48.792;9.202;2023-04-01T06:53:54;9.70;1.00
9760;DHT22;4919;48.792;9.202;2023-04-01T06:56:42;9.70;1.00
9760;DHT22;4919;48.792;9.202;2023-04-01T06:59:31;9.80;1.00
9760;DHT22;4919;48.792;9.202;2023-04-01T07:02:34;9.90;1.00
9760;DHT22;4919;48.792;9.202;2023-04-01T07:05:23;10.00;1.00
9760;DHT22;4919;48.792;9.202;2023-04-01T07:08:20;10.10;1.00
9760;DHT22;4919;48.792;9.202;2023-04-01T07:11:24;10.20;1.00
9760;DHT22;4919;48.792;9.202;2023-04-01T07:17:20;10.30;1.00
9760;DHT22;4919;48.792;9.202;2023-04-01T07:20:22;10.50;1.00
9760;DHT22;4919;48.792;9.202;2023-04-01T07:23:16;10.70;1.00
9760;DHT22;4919;48.792;9.202;2023-04-01T07:26:21;10.90;1.00
9760;DHT22;4919;48.792;9.202;2023-04-01T07:29:12;10.90;1.00
9760;DHT22;4919;48.792;9.202;2023-04-01T07:51:03;10.80;99.90
9760;DHT22;4919;48.792;9.202;2023-04-01T07:54:06;10.90;99.90
9760;DHT22;4919;48.792;9.202;2023-04-01T07:57:03;10.90;99.90
9760;DHT22;4919;48.792;9.202;2023-04-01T08:05:59;10.70;99.90
9760;DHT22;4919;48.792;9.202;2023-04-01T08:11:51;10.50;99.90
9760;DHT22;4919;48.792;9.202;2023-04-01T08:15:08;10.50;99.90
9760;DHT22;4919;48.792;9.202;2023-04-01T08:21:02;10.70;99.90
9760;DHT22;4919;48.792;9.202;2023-04-01T08:23:51;10.60;99.90
9760;DHT22;4919;48.792;9.202;2023-04-01T08:26:41;10.80;99.90
9760;DHT22;4919;48.792;9.202;2023-04-01T08:29:52;10.90;99.90
9760;DHT22;4919;48.792;9.202;2023-04-01T08:32:44;10.80;99.90
9760;DHT22;4919;48.792;9.202;2023-04-01T08:35:38;10.90;99.90
9760;DHT22;4919;48.792;9.202;2023-04-01T08:38:50;10.90;86.00
9760;DHT22;4919;48.792;9.202;2023-04-01T08:51:10;11.10;1.00
9760;DHT22;4919;48.792;9.202;2023-04-01T09:06:33;11.60;1.00
9760;DHT22;4919;48.792;9.202;2023-04-01T09:09:48;11.70;1.00
9760;DHT22;4919;48.792;9.202;2023-04-01T09:22:10;11.80;1.00
9760;DHT22;4919;48.792;9.202;2023-04-01T09:28:57;11.70;1.00
9760;DHT22;4919;48.792;9.202;2023-04-01T09:34:53;11.70;1.00
9760;DHT22;4919;48.792;9.202;2023-04-01T09:41:08;10.80;1.00
9760;DHT22;4919;48.792;9.202;2023-04-01T09:44:01;10.60;1.00
9760;DHT22;4919;48.792;9.202;2023-04-01T09:58:35;10.10;1.00
9760;DHT22;4919;48.792;9.202;2023-04-01T10:24:13;9.80;99.90
9760;DHT22;4919;48.792;9.202;2023-04-01T10:30:57;9.80;99.90
9760;DHT22;4919;48.792;9.202;2023-04-01T10:43:07;9.80;99.90
9760;DHT22;4919;48.792;9.202;2023-04-01T10:49:36;9.90;99.90
9760;DHT22;4919;48.792;9.202;2023-04-01T10:56:07;9.90;99.90
9760;DHT22;4919;48.792;9.202;2023-04-01T11:02:39;9.90;99.90
9760;DHT22;4919;48.792;9.202;2023-04-01T11:05:35;9.90;99.90
9760;DHT22;4919;48.792;9.202;2023-04-01T11:15:15;9.80;99.90
9760;DHT22;4919;48.792;9.202;2023-04-01T11:31:50;9.60;99.90
9760;DHT22;4919;48.792;9.202;2023-04-01T12:00:35;9.20;99.90
9760;DHT22;4919;48.792;9.202;2023-04-01T12:28:10;9.30;99.90
9760;DHT22;4919;48.792;9.202;2023-04-01T12:34:28;9.40;99.90
9760;DHT22;4919;48.792;9.202;2023-04-01T12:37:34;9.30;99.90
9760;DHT22;4919;48.792;9.202;2023-04-01T12:58:37;8.80;99.90
9760;DHT22;4919;48.792;9.202;2023-04-01T13:01:48;8.70;99.90
9760;DHT22;4919;48.792;9.202;2023-04-01T13:05:10;8.80;99.90
9760;DHT22;4919;48.792;9.202;2023-04-01T13:11:36;8.70;99.90
9760;DHT22;4919;48.792;9.202;2023-04-01T13:23:50;8.60;99.90
9760;DHT22;4919;48.792;9.202;2023-04-01T13:38:43;8.50;99.90
9760;DHT22;4919;48.792;9.202;2023-04-01T13:44:55;8.40;99.90
9760;DHT22;4919;48.792;9.202;2023-04-01T13:51:09;8.40;93.00
9760;DHT22;4919;48.792;9.202;2023-04-01T13:59:56;8.30;79.90
9760;DHT22;4919;48.792;9.202;2023-04-01T14:06:23;8.30;99.90
9760;DHT22;4919;48.792;9.202;2023-04-01T14:12:56;8.20;99.90
9760;DHT22;4919;48.792;9.202;2023-04-01T14:28:54;7.90;99.90
9760;DHT22;4919;48.792;9.202;2023-04-01T14:34:55;7.80;99.90
9760;DHT22;4919;48.792;9.202;2023-04-01T14:41:11;7.80;99.90
9760;DHT22;4919;48.792;9.202;2023-04-01T14:50:15;7.90;99.90
9760;DHT22;4919;48.792;9.202;2023-04-01T14:56:08;7.80;99.90
9760;DHT22;4919;48.792;9.202;2023-04-01T14:58:57;7.70;99.90
9760;DHT22;4919;48.792;9.202;2023-04-01T15:02:10;7.60;96.50
9760;DHT22;4919;48.792;9.202;2023-04-01T15:08:25;7.60;93.00
9760;DHT22;4919;48.792;9.202;2023-04-01T15:11:25;7.50;83.30
9760;DHT22;4919;48.792;9.202;2023-04-01T15:14:23;7.50;74.50
9760;DHT22;4919;48.792;9.202;2023-04-01T15:17:30;7.50;69.90
9760;DHT22;4919;48.792;9.202;2023-04-01T15:33:17;7.30;74.00
9760;DHT22;4919;48.792;9.202;2023-04-01T15:39:09;7.20;66.50
9760;DHT22;4919;48.792;9.202;2023-04-01T15:45:17;7.10;59.20
9760;DHT22;4919;48.792;9.202;2023-04-01T15:54:54;7.10;57.10
9760;DHT22;4919;48.792;9.202;2023-04-01T16:01:24;7.00;36.70
9760;DHT22;4919;48.792;9.202;2023-04-01T16:04:38;7.00;17.50
9760;DHT22;4919;48.792;9.202;2023-04-01T16:08:05;6.90;13.50
9760;DHT22;4919;48.792;9.202;2023-04-01T16:14:07;6.90;18.00
9760;DHT22;4919;48.792;9.202;2023-04-01T16:20:20;6.80;6.30
9760;DHT22;4919;48.792;9.202;2023-04-01T16:35:25;6.80;1.00
9760;DHT22;4919;48.792;9.202;2023-04-01T16:44:20;6.80;1.00
9760;DHT22;4919;48.792;9.202;2023-04-01T16:47:09;6.80;1.00
9760;DHT22;4919;48.792;9.202;2023-04-01T16:50:07;6.70;1.00
9760;DHT22;4919;48.792;9.202;2023-04-01T16:53:10;6.70;1.00
9760;DHT22;4919;48.792;9.202;2023-04-01T17:04:59;6.50;1.00
9760;DHT22;4919;48.792;9.202;2023-04-01T17:08:15;6.50;1.00
9760;DHT22;4919;48.792;9.202;2023-04-01T17:11:12;6.50;1.00
9760;DHT22;4919;48.792;9.202;2023-04-01T17:20:40;6.50;1.00
9760;DHT22;4919;48.792;9.202;2023-04-01T17:23:50;6.40;1.00
9760;DHT22;4919;48.792;9.202;2023-04-01T17:33:22;6.30;1.00
9760;DHT22;4919;48.792;9.202;2023-04-01T17:43:04;6.00;1.00
9760;DHT22;4919;48.792;9.202;2023-04-01T17:45:56;6.00;1.00
9760;DHT22;4919;48.792;9.202;2023-04-01T17:48:47;5.90;1.00
9760;DHT22;4919;48.792;9.202;2023-04-01T17:51:42;5.80;1.00
9760;DHT22;4919;48.792;9.202;2023-04-01T17:57:43;5.80;1.00
9760;DHT22;4919;48.792;9.202;2023-04-01T18:04:34;5.70;1.00
9760;DHT22;4919;48.792;9.202;2023-04-01T18:07:30;5.70;1.00
9760;DHT22;4919;48.792;9.202;2023-04-01T18:16:43;5.70;1.00
9760;DHT22;4919;48.792;9.202;2023-04-01T18:25:47;5.60;1.00
9760;DHT22;4919;48.792;9.202;2023-04-01T18:28:43;5.60;1.00
9760;DHT22;4919;48.792;9.202;2023-04-01T18:31:38;5.60;1.00
9760;DHT22;4919;48.792;9.202;2023-04-01T18:34:50;5.60;1.00
9760;DHT22;4919;48.792;9.202;2023-04-01T18:37:44;5.50;1.00
9760;DHT22;4919;48.792;9.202;2023-04-01T18:40:35;5.50;1.00
9760;DHT22;4919;48.792;9.202;2023-04-01T18:43:32;5.50;1.00
9760;DHT22;4919;48.792;9.202;2023-04-01T18:52:39;5.30;1.00
9760;DHT22;4919;48.792;9.202;2023-04-01T18:55:46;5.30;1.00
9760;DHT22;4919;48.792;9.202;2023-04-01T18:58:42;5.30;1.00
9760;DHT22;4919;48.792;9.202;2023-04-01T19:01:42;5.30;1.00
9760;DHT22;4919;48.792;9.202;2023-04-01T19:04:38;5.30;1.00
9760;DHT22;4919;48.792;9.202;2023-04-01T19:10:39;5.20;1.00
9760;DHT22;4919;48.792;9.202;2023-04-01T19:26:33;5.20;1.00
9760;DHT22;4919;48.792;9.202;2023-04-01T19:33:26;5.10;1.00
9760;DHT22;4919;48.792;9.202;2023-04-01T19:39:05;5.10;1.00
9760;DHT22;4919;48.792;9.202;2023-04-01T19:45:05;5.00;1.00
9760;DHT22;4919;48.792;9.202;2023-04-01T19:48:27;5.00;1.00
9760;DHT22;4919;48.792;9.202;2023-04-01T19:54:22;4.90;1.00
9760;DHT22;4919;48.792;9.202;2023-04-01T20:00:41;4.90;1.00
9760;DHT22;4919;48.792;9.202;2023-04-01T20:15:44;4.80;1.00
9760;DHT22;4919;48.792;9.202;2023-04-01T20:21:46;4.70;1.00
9760;DHT22;4919;48.792;9.202;2023-04-01T20:24:44;4.70;1.00
9760;DHT22;4919;48.792;9.202;2023-04-01T20:27:33;4.60;1.00
9760;DHT22;4919;48.792;9.202;2023-04-01T20:30:47;4.60;1.00
9760;DHT22;4919;48.792;9.202;2023-04-01T20:37:00;4.60;1.00
9760;DHT22;4919;48.792;9.202;2023-04-01T20:43:20;4.60;1.00
9760;DHT22;4919;48.792;9.202;2023-04-01T20:46:19;4.50;1.00
9760;DHT22;4919;48.792;9.202;2023-04-01T21:20:04;4.10;1.00
9760;DHT22;4919;48.792;9.202;2023-04-01T21:23:23;4.10;1.00
9760;DHT22;4919;48.792;9.202;2023-04-01T21:32:36;4.00;1.00
9760;DHT22;4919;48.792;9.202;2023-04-01T21:45:02;4.00;1.00
9760;DHT22;4919;48.792;9.202;2023-04-01T21:48:09;4.00;1.00
9760;DHT22;4919;48.792;9.202;2023-04-01T22:00:13;3.80;1.00
9760;DHT22;4919;48.792;9.202;2023-04-01T22:18:46;3.80;1.00
9760;DHT22;4919;48.792;9.202;2023-04-01T22:21:52;3.70;1.00
9760;DHT22;4919;48.792;9.202;2023-04-01T22:25:05;3.70;1.00
9760;DHT22;4919;48.792;9.202;2023-04-01T22:28:00;3.70;1.00
9760;DHT22;4919;48.792;9.202;2023-04-01T22:30:52;3.70;1.00
9760;DHT22;4919;48.792;9.202;2023-04-01T22:33:55;3.60;1.00
9760;DHT22;4919;48.792;9.202;2023-04-01T22:48:20;3.60;1.00
9760;DHT22;4919;48.792;9.202;2023-04-01T22:54:27;3.50;1.00
9760;DHT22;4919;48.792;9.202;2023-04-01T23:00:39;3.50;1.00
9760;DHT22;4919;48.792;9.202;2023-04-01T23:03:39;3.50;1.00
9760;DHT22;4919;48.792;9.202;2023-04-01T23:06:30;3.50;1.00
9760;DHT22;4919;48.792;9.202;2023-04-01T23:09:28;3.50;99.90
9760;DHT22;4919;48.792;9.202;2023-04-01T23:12:15;3.50;1.00
9760;DHT22;4919;48.792;9.202;2023-04-01T23:15:02;3.50;99.90
9760;DHT22;4919;48.792;9.202;2023-04-01T23:30:04;3.40;99.90
9760;DHT22;4919;48.792;9.202;2023-04-01T23:32:49;3.40;99.90
9760;DHT22;4919;48.792;9.202;2023-04-01T23:35:34;3.30;99.90
9760;DHT22;4919;48.792;9.202;2023-04-01T23:38:41;3.30;99.90
9760;DHT22;4919;48.792;9.202;2023-04-01T23:41:31;3.40;99.90
9760;DHT22;4919;48.792;9.202;2023-04-01T23:44:16;3.40;99.90
9760;DHT22;4919;48.792;9.202;2023-04-01T23:47:03;3.40;99.90
9760;DHT22;4919;48.792;9.202;2023-04-01T23:49:53;3.40;99.90
9760;DHT22;4919;48.792;9.202;2023-04-01T23:52:42;3.30;99.90
9760;DHT22;4919;48.792;9.202;2023-04-01T23:55:31;3.40;99.90
9760;DHT22;4919;48.792;9.202;2023-04-01T23:58:23;3.30;99.90
